createdAt,value
2023-03-16T00:00:48.779Z,2.20
2023-03-16T00:03:22.061Z,1.83
2023-03-16T00:05:50.052Z,1.93
2023-03-16T00:08:17.727Z,2.13
2023-03-16T00:10:48.034Z,2.10
2023-03-16T00:13:19.304Z,2.00
2023-03-16T00:15:59.851Z,2.30
2023-03-16T00:18:28.823Z,1.80
2023-03-16T00:20:58.056Z,2.10
2023-03-16T00:23:28.428Z,2.30
2023-03-16T00:25:55.607Z,2.10
2023-03-16T00:28:23.414Z,2.30
2023-03-16T00:30:50.575Z,2.37
2023-03-16T00:33:17.674Z,2.27
2023-03-16T00:35:49.806Z,2.20
2023-03-16T00:38:17.840Z,2.23
2023-03-16T00:40:45.386Z,2.10
2023-03-16T00:43:12.535Z,2.10
2023-03-16T00:45:39.770Z,1.93
2023-03-16T00:48:06.888Z,1.90
2023-03-16T00:50:33.961Z,2.03
2023-03-16T00:53:01.607Z,2.43
2023-03-16T00:55:28.766Z,2.57
2023-03-16T00:57:55.954Z,2.27
2023-03-16T01:00:26.484Z,2.67
2023-03-16T01:02:53.814Z,2.50
2023-03-16T01:05:21.116Z,2.10
2023-03-16T01:07:48.223Z,2.30
2023-03-16T01:10:15.618Z,2.27
2023-03-16T01:12:45.224Z,2.60
2023-03-16T01:15:13.438Z,2.50
2023-03-16T01:17:41.406Z,2.43
2023-03-16T01:20:12.041Z,2.50
2023-03-16T01:22:39.253Z,2.57
2023-03-16T01:25:06.748Z,2.50
2023-03-16T01:27:33.918Z,2.70
2023-03-16T01:30:02.295Z,2.50
2023-03-16T01:32:29.502Z,3.00
2023-03-16T01:34:56.664Z,2.80
2023-03-16T01:37:23.905Z,2.20
2023-03-16T01:39:51.026Z,2.30
2023-03-16T01:42:18.261Z,2.40
2023-03-16T01:44:56.179Z,2.53
2023-03-16T01:47:23.853Z,2.57
2023-03-16T01:49:54.845Z,2.43
2023-03-16T01:52:23.640Z,2.57
2023-03-16T01:54:56.417Z,2.50
2023-03-16T01:57:24.933Z,2.50
2023-03-16T01:59:54.736Z,2.47
2023-03-16T02:02:26.074Z,2.80
2023-03-16T02:05:08.766Z,2.80
2023-03-16T02:07:38.661Z,3.03
2023-03-16T02:10:07.110Z,2.80
2023-03-16T02:12:34.559Z,2.57
2023-03-16T02:15:01.628Z,3.17
2023-03-16T02:17:29.800Z,3.00
2023-03-16T02:20:12.025Z,3.30
2023-03-16T02:22:42.230Z,2.80
2023-03-16T02:25:10.211Z,2.83
2023-03-16T02:27:40.809Z,3.00
2023-03-16T02:30:08.189Z,3.10
2023-03-16T02:32:36.364Z,3.13
2023-03-16T02:35:03.624Z,2.93
2023-03-16T02:37:33.766Z,2.67
2023-03-16T02:40:02.034Z,3.03
2023-03-16T02:42:29.626Z,2.70
2023-03-16T02:44:57.902Z,3.10
2023-03-16T02:47:25.178Z,2.90
2023-03-16T02:49:52.343Z,2.77
2023-03-16T02:52:19.539Z,2.70
2023-03-16T02:54:46.720Z,3.30
2023-03-16T02:57:13.894Z,3.33
2023-03-16T02:59:41.587Z,3.00
2023-03-16T03:02:10.887Z,2.57
2023-03-16T03:04:38.348Z,3.17
2023-03-16T03:07:05.511Z,2.83
2023-03-16T03:09:33.256Z,3.30
2023-03-16T03:12:00.738Z,3.33
2023-03-16T03:14:28.526Z,3.00
2023-03-16T03:16:55.717Z,2.73
2023-03-16T03:19:23.147Z,3.00
2023-03-16T03:21:50.580Z,2.90
2023-03-16T03:24:18.682Z,2.90
2023-03-16T03:26:45.790Z,3.27
2023-03-16T03:29:12.985Z,2.60
2023-03-16T03:31:40.141Z,3.03
2023-03-16T03:34:07.338Z,3.00
2023-03-16T03:36:35.139Z,3.00
2023-03-16T03:39:04.982Z,2.90
2023-03-16T03:41:32.969Z,2.70
2023-03-16T03:44:00.562Z,2.60
2023-03-16T03:46:27.848Z,2.50
2023-03-16T03:48:54.962Z,2.57
2023-03-16T03:51:22.072Z,2.90
2023-03-16T03:53:49.215Z,2.67
2023-03-16T03:56:16.294Z,3.10
2023-03-16T03:58:43.395Z,3.10
2023-03-16T04:01:10.528Z,3.17
2023-03-16T04:03:37.607Z,3.20
2023-03-16T04:06:07.091Z,3.43
2023-03-16T04:08:34.719Z,3.43
2023-03-16T04:11:01.799Z,3.50
2023-03-16T04:13:28.947Z,3.07
2023-03-16T04:15:59.628Z,3.57
2023-03-16T04:18:26.794Z,3.00
2023-03-16T04:20:53.949Z,3.20
2023-03-16T04:23:21.782Z,3.70
2023-03-16T04:25:49.048Z,3.10
2023-03-16T04:28:17.767Z,3.00
2023-03-16T04:30:44.905Z,2.90
2023-03-16T04:33:12.023Z,3.03
2023-03-16T04:35:39.162Z,2.97
2023-03-16T04:38:06.297Z,3.30
2023-03-16T04:40:33.630Z,3.33
2023-03-16T04:43:00.717Z,2.97
2023-03-16T04:45:28.017Z,2.80
2023-03-16T04:47:55.092Z,2.60
2023-03-16T04:50:22.770Z,3.10
2023-03-16T04:52:49.890Z,3.17
2023-03-16T04:55:16.948Z,3.33
2023-03-16T04:57:44.100Z,3.17
2023-03-16T05:00:21.502Z,3.13
2023-03-16T05:02:49.075Z,3.10
2023-03-16T05:05:16.326Z,2.97
2023-03-16T05:07:43.703Z,3.10
2023-03-16T05:10:14.774Z,3.27
2023-03-16T05:12:41.856Z,2.60
2023-03-16T05:15:09.434Z,2.60
2023-03-16T05:17:36.673Z,3.00
2023-03-16T05:20:08.136Z,3.07
2023-03-16T05:22:35.807Z,3.20
2023-03-16T05:25:04.630Z,2.97
2023-03-16T05:27:31.809Z,3.33
2023-03-16T05:29:58.918Z,2.87
2023-03-16T05:32:26.091Z,3.30
2023-03-16T05:34:53.276Z,2.93
2023-03-16T05:37:20.480Z,3.23
2023-03-16T05:39:47.759Z,3.50
2023-03-16T05:42:14.885Z,2.80
2023-03-16T05:44:42.198Z,3.10
2023-03-16T05:47:09.396Z,3.30
2023-03-16T05:49:36.491Z,2.83
2023-03-16T05:52:04.251Z,3.07
2023-03-16T05:54:31.382Z,3.30
2023-03-16T05:56:59.163Z,2.90
2023-03-16T05:59:26.249Z,3.23
2023-03-16T06:01:53.364Z,3.33
2023-03-16T06:04:21.885Z,3.50
2023-03-16T06:06:49.055Z,2.90
2023-03-16T06:09:16.117Z,3.00
2023-03-16T06:11:44.134Z,2.77
2023-03-16T06:14:11.239Z,3.07
2023-03-16T06:16:38.429Z,3.20
2023-03-16T06:19:05.596Z,4.20
2023-03-16T06:21:32.675Z,4.00
2023-03-16T06:23:59.792Z,4.20
2023-03-16T06:26:27.258Z,4.00
2023-03-16T06:28:54.330Z,3.40
2023-03-16T06:31:21.528Z,3.63
2023-03-16T06:33:48.626Z,3.70
2023-03-16T06:36:15.831Z,3.50
2023-03-16T06:38:43.152Z,4.00
2023-03-16T06:41:10.414Z,3.80
2023-03-16T06:43:37.620Z,3.80
2023-03-16T06:46:04.968Z,4.93
2023-03-16T06:48:32.049Z,3.53
2023-03-16T06:50:59.241Z,3.73
2023-03-16T06:53:26.624Z,3.93
2023-03-16T06:55:53.791Z,3.70
2023-03-16T06:58:21.200Z,3.30
2023-03-16T07:00:48.355Z,3.67
2023-03-16T07:03:15.428Z,3.57
2023-03-16T07:05:42.467Z,3.63
2023-03-16T07:08:10.190Z,3.57
2023-03-16T07:10:37.316Z,3.60
2023-03-16T07:13:04.379Z,3.43
2023-03-16T07:15:31.463Z,3.63
2023-03-16T07:17:58.544Z,3.60
2023-03-16T07:20:27.051Z,3.37
2023-03-16T07:22:54.386Z,3.47
2023-03-16T07:25:21.519Z,3.63
2023-03-16T07:27:48.668Z,3.70
2023-03-16T07:30:15.913Z,3.37
2023-03-16T07:32:43.211Z,3.10
2023-03-16T07:35:13.397Z,3.40
2023-03-16T07:37:40.560Z,2.87
2023-03-16T07:40:09.162Z,3.23
2023-03-16T07:42:36.584Z,3.20
2023-03-16T07:45:04.764Z,3.10
2023-03-16T07:47:33.509Z,3.30
2023-03-16T07:50:01.418Z,3.23
2023-03-16T07:52:28.701Z,3.10
2023-03-16T07:54:56.208Z,2.97
2023-03-16T07:57:23.343Z,3.17
2023-03-16T07:59:50.496Z,3.10
2023-03-16T08:02:19.459Z,3.03
2023-03-16T08:04:46.739Z,2.90
2023-03-16T08:07:14.887Z,2.73
2023-03-16T08:09:42.261Z,2.90
2023-03-16T08:12:11.185Z,3.17
2023-03-16T08:14:38.342Z,3.30
2023-03-16T08:17:07.205Z,3.40
2023-03-16T08:19:34.744Z,2.93
2023-03-16T08:22:02.262Z,3.07
2023-03-16T08:24:30.971Z,3.00
2023-03-16T08:26:58.526Z,3.20
2023-03-16T08:29:26.509Z,2.90
2023-03-16T08:31:56.213Z,2.60
2023-03-16T08:34:24.496Z,3.00
2023-03-16T08:36:51.678Z,3.00
2023-03-16T08:39:18.773Z,2.87
2023-03-16T08:41:46.985Z,2.70
2023-03-16T08:44:14.247Z,2.63
2023-03-16T08:46:42.314Z,2.90
2023-03-16T08:49:09.730Z,2.40
2023-03-16T08:51:36.928Z,2.70
2023-03-16T08:54:04.124Z,2.70
2023-03-16T08:56:31.282Z,2.50
2023-03-16T08:58:58.450Z,2.70
2023-03-16T09:01:26.541Z,2.33
2023-03-16T09:03:54.952Z,2.80
2023-03-16T09:06:22.457Z,1.80
2023-03-16T09:08:49.577Z,2.07
2023-03-16T09:11:18.665Z,1.90
2023-03-16T09:13:46.273Z,1.67
2023-03-16T09:16:15.171Z,1.40
2023-03-16T09:18:42.766Z,1.27
2023-03-16T09:21:10.566Z,1.00
2023-03-16T09:23:37.660Z,1.50
2023-03-16T09:26:07.360Z,1.30
2023-03-16T09:28:35.959Z,1.40
2023-03-16T09:31:03.428Z,1.40
2023-03-16T09:33:32.104Z,1.60
2023-03-16T09:35:59.617Z,1.57
2023-03-16T09:38:27.329Z,1.03
2023-03-16T09:41:03.089Z,1.23
2023-03-16T09:43:30.112Z,1.50
2023-03-16T09:46:17.508Z,1.10
2023-03-16T09:48:45.039Z,0.80
2023-03-16T09:51:21.730Z,1.43
2023-03-16T09:53:51.396Z,1.00
2023-03-16T09:56:45.077Z,1.00
2023-03-16T09:59:49.666Z,1.07
2023-03-16T10:02:26.358Z,1.30
2023-03-16T10:05:10.594Z,1.20
2023-03-16T10:07:49.480Z,1.40
2023-03-16T10:10:21.160Z,1.10
2023-03-16T10:12:50.625Z,1.40
2023-03-16T10:15:19.906Z,1.03
2023-03-16T10:18:07.172Z,1.27
2023-03-16T10:20:35.009Z,1.07
2023-03-16T10:23:09.241Z,1.33
2023-03-16T10:25:43.782Z,1.10
2023-03-16T10:28:21.940Z,1.20
2023-03-16T10:30:50.126Z,0.87
2023-03-16T10:33:20.301Z,1.07
2023-03-16T10:35:56.718Z,1.10
2023-03-16T10:38:48.194Z,0.97
2023-03-16T10:41:27.824Z,1.00
2023-03-16T10:43:57.796Z,0.80
2023-03-16T10:46:29.320Z,1.20
2023-03-16T10:49:01.402Z,0.90
2023-03-16T10:51:33.333Z,1.10
2023-03-16T10:54:10.759Z,1.20
2023-03-16T10:56:38.395Z,1.37
2023-03-16T10:59:15.619Z,0.90
2023-03-16T11:01:45.931Z,0.97
2023-03-16T11:04:16.468Z,1.20
2023-03-16T11:06:48.858Z,0.80
2023-03-16T11:09:21.354Z,1.10
2023-03-16T11:11:49.648Z,1.00
2023-03-16T11:14:20.259Z,1.10
2023-03-16T11:16:51.017Z,0.80
2023-03-16T11:19:31.793Z,0.90
2023-03-16T11:22:14.071Z,1.00
2023-03-16T11:24:56.939Z,0.70
2023-03-16T11:27:27.800Z,0.90
2023-03-16T11:30:07.343Z,0.90
2023-03-16T11:32:39.088Z,0.80
2023-03-16T11:35:13.488Z,0.83
2023-03-16T11:37:46.765Z,0.53
2023-03-16T11:40:33.141Z,0.80
2023-03-16T11:43:19.095Z,0.80
2023-03-16T11:45:55.586Z,0.80
2023-03-16T11:48:41.494Z,0.70
2023-03-16T11:51:24.089Z,1.00
2023-03-16T11:53:57.261Z,0.60
2023-03-16T11:56:33.790Z,1.00
2023-03-16T11:59:09.734Z,0.73
2023-03-16T12:02:00.072Z,0.77
2023-03-16T12:04:46.490Z,1.03
2023-03-16T12:07:20.395Z,0.70
2023-03-16T12:09:50.721Z,0.87
2023-03-16T12:12:20.995Z,0.80
2023-03-16T12:14:52.764Z,0.70
2023-03-16T12:17:30.602Z,0.70
2023-03-16T12:19:58.774Z,0.83
2023-03-16T12:22:25.852Z,0.70
2023-03-16T12:24:53.266Z,1.30
2023-03-16T12:27:30.173Z,0.93
2023-03-16T12:30:05.519Z,0.80
2023-03-16T12:32:53.363Z,1.10
2023-03-16T12:35:20.592Z,0.90
2023-03-16T12:37:47.622Z,0.70
2023-03-16T12:40:33.885Z,0.87
2023-03-16T12:43:07.540Z,1.00
2023-03-16T12:45:41.924Z,0.87
2023-03-16T12:48:14.928Z,1.27
2023-03-16T12:50:53.006Z,1.17
2023-03-16T12:53:30.391Z,0.90
2023-03-16T12:55:58.018Z,1.37
2023-03-16T12:58:26.156Z,1.00
2023-03-16T13:00:57.949Z,1.30
2023-03-16T13:03:25.830Z,1.20
2023-03-16T13:05:55.330Z,1.10
2023-03-16T13:08:23.660Z,1.07
2023-03-16T13:11:10.516Z,1.10
2023-03-16T13:13:52.542Z,1.10
2023-03-16T13:16:28.308Z,1.40
2023-03-16T13:18:55.901Z,1.30
2023-03-16T13:21:34.980Z,1.30
2023-03-16T13:24:13.995Z,1.33
2023-03-16T13:26:47.460Z,1.30
2023-03-16T13:29:20.527Z,1.40
2023-03-16T13:31:48.032Z,1.13
2023-03-16T13:34:20.276Z,1.40
2023-03-16T13:36:47.633Z,1.27
2023-03-16T13:39:16.453Z,1.33
2023-03-16T13:41:43.727Z,1.27
2023-03-16T13:44:17.080Z,1.33
2023-03-16T13:46:44.563Z,1.60
2023-03-16T13:49:12.945Z,1.40
2023-03-16T13:51:40.147Z,1.20
2023-03-16T13:54:19.764Z,1.33
2023-03-16T13:56:46.946Z,1.47
2023-03-16T13:59:14.209Z,1.40
2023-03-16T14:01:44.549Z,1.20
2023-03-16T14:04:14.313Z,1.50
2023-03-16T14:06:41.454Z,1.67
2023-03-16T14:09:18.129Z,1.40
2023-03-16T14:11:48.524Z,1.23
2023-03-16T14:14:17.184Z,1.43
2023-03-16T14:16:44.708Z,1.53
2023-03-16T14:19:19.269Z,1.60
2023-03-16T14:21:46.975Z,1.53
2023-03-16T14:24:34.804Z,1.33
2023-03-16T14:27:11.144Z,1.30
2023-03-16T14:29:42.382Z,1.27
2023-03-16T14:32:21.873Z,1.80
2023-03-16T14:34:52.108Z,1.53
2023-03-16T14:37:19.371Z,1.73
2023-03-16T14:39:47.090Z,1.67
2023-03-16T14:42:24.433Z,1.60
2023-03-16T14:44:51.744Z,1.80
2023-03-16T14:47:23.344Z,1.30
2023-03-16T14:49:51.008Z,1.50
2023-03-16T14:52:31.599Z,1.93
2023-03-16T14:54:59.680Z,1.60
2023-03-16T14:57:27.720Z,1.53
2023-03-16T14:59:55.620Z,1.53
2023-03-16T15:02:24.837Z,1.67
2023-03-16T15:04:52.819Z,2.20
2023-03-16T15:07:23.939Z,2.10
2023-03-16T15:09:51.644Z,2.20
2023-03-16T15:12:19.807Z,2.33
2023-03-16T15:15:05.971Z,2.40
2023-03-16T15:17:33.510Z,2.20
2023-03-16T15:20:01.730Z,2.30
2023-03-16T15:22:30.674Z,2.10
2023-03-16T15:24:58.933Z,2.13
2023-03-16T15:27:28.905Z,2.37
2023-03-16T15:29:56.613Z,2.27
2023-03-16T15:32:23.688Z,2.40
2023-03-16T15:34:50.856Z,2.50
2023-03-16T15:37:19.232Z,2.23
2023-03-16T15:39:47.270Z,2.30
2023-03-16T15:42:18.592Z,2.70
2023-03-16T15:44:46.576Z,2.67
2023-03-16T15:47:14.583Z,2.67
2023-03-16T15:49:47.838Z,3.00
2023-03-16T15:52:34.739Z,3.33
2023-03-16T15:55:07.608Z,3.43
2023-03-16T15:57:35.630Z,3.50
2023-03-16T16:00:02.890Z,3.63
2023-03-16T16:02:31.373Z,3.10
2023-03-16T16:04:59.019Z,3.37
2023-03-16T16:07:27.184Z,3.03
2023-03-16T16:09:54.418Z,3.20
2023-03-16T16:12:26.742Z,2.83
2023-03-16T16:14:56.165Z,3.10
2023-03-16T16:17:36.430Z,2.80
2023-03-16T16:20:20.401Z,2.53
2023-03-16T16:22:47.771Z,3.00
2023-03-16T16:25:14.870Z,2.87
2023-03-16T16:27:42.105Z,2.43
2023-03-16T16:30:21.233Z,2.50
2023-03-16T16:32:48.681Z,2.30
2023-03-16T16:35:16.946Z,2.40
2023-03-16T16:37:45.076Z,2.27
2023-03-16T16:40:23.307Z,2.33
2023-03-16T16:42:51.948Z,2.67
2023-03-16T16:45:26.138Z,2.60
2023-03-16T16:47:55.686Z,3.10
2023-03-16T16:50:25.516Z,2.73
2023-03-16T16:52:53.087Z,2.73
2023-03-16T16:55:22.203Z,2.60
2023-03-16T16:57:50.102Z,2.47
2023-03-16T17:00:21.729Z,2.60
2023-03-16T17:02:51.323Z,2.70
2023-03-16T17:05:21.005Z,2.70
2023-03-16T17:07:48.215Z,2.40
2023-03-16T17:10:22.749Z,2.40
2023-03-16T17:12:53.825Z,2.50
2023-03-16T17:15:25.979Z,2.67
2023-03-16T17:17:55.555Z,2.77
2023-03-16T17:20:25.732Z,2.93
2023-03-16T17:22:54.623Z,2.77
2023-03-16T17:25:21.923Z,2.77
2023-03-16T17:27:49.516Z,2.90
2023-03-16T17:30:16.786Z,2.70
2023-03-16T17:32:43.942Z,2.60
2023-03-16T17:35:15.410Z,2.63
2023-03-16T17:37:42.845Z,2.43
2023-03-16T17:40:17.946Z,2.93
2023-03-16T17:42:46.057Z,2.47
2023-03-16T17:45:24.598Z,2.90
2023-03-16T17:47:52.261Z,3.03
2023-03-16T17:50:24.963Z,2.67
2023-03-16T17:52:53.199Z,3.10
2023-03-16T17:55:24.730Z,2.80
2023-03-16T17:57:53.524Z,2.97
2023-03-16T18:00:26.835Z,2.73
2023-03-16T18:02:55.612Z,3.20
2023-03-16T18:05:27.783Z,2.90
2023-03-16T18:07:56.048Z,2.73
2023-03-16T18:10:28.470Z,2.73
2023-03-16T18:12:57.914Z,2.90
2023-03-16T18:15:27.091Z,2.87
2023-03-16T18:17:54.693Z,2.50
2023-03-16T18:20:34.420Z,2.50
2023-03-16T18:23:02.609Z,2.83
2023-03-16T18:25:30.383Z,2.30
2023-03-16T18:27:57.673Z,2.53
2023-03-16T18:30:26.030Z,2.37
2023-03-16T18:32:53.480Z,2.33
2023-03-16T18:35:21.249Z,2.30
2023-03-16T18:37:48.860Z,2.43
2023-03-16T18:40:17.290Z,2.20
2023-03-16T18:42:44.546Z,2.90
2023-03-16T18:45:12.785Z,2.63
2023-03-16T18:47:43.714Z,2.63
2023-03-16T18:50:18.360Z,2.77
2023-03-16T18:52:45.437Z,2.77
2023-03-16T18:55:20.387Z,2.43
2023-03-16T18:57:50.375Z,2.57
2023-03-16T19:00:19.021Z,2.60
2023-03-16T19:02:53.219Z,2.40
2023-03-16T19:05:23.393Z,2.47
2023-03-16T19:07:51.904Z,2.60
2023-03-16T19:10:22.042Z,2.60
2023-03-16T19:12:49.440Z,2.90
2023-03-16T19:15:30.775Z,2.53
2023-03-16T19:17:58.549Z,2.30
2023-03-16T19:20:27.692Z,2.33
2023-03-16T19:23:06.380Z,2.60
2023-03-16T19:25:37.740Z,2.20
2023-03-16T19:28:06.199Z,2.70
2023-03-16T19:30:34.177Z,2.30
2023-03-16T19:33:01.855Z,2.50
2023-03-16T19:35:48.421Z,2.40
2023-03-16T19:38:18.087Z,2.57
2023-03-16T19:40:45.749Z,2.70
2023-03-16T19:43:17.460Z,2.13
2023-03-16T19:45:45.031Z,2.60
2023-03-16T19:48:14.823Z,2.27
2023-03-16T19:50:42.195Z,2.60
2023-03-16T19:53:27.592Z,2.10
2023-03-16T19:55:54.961Z,2.33
2023-03-16T19:58:28.716Z,2.13
2023-03-16T20:00:56.558Z,2.20
2023-03-16T20:03:23.762Z,4.30
2023-03-16T20:05:50.917Z,7.03
2023-03-16T20:08:22.452Z,7.77
2023-03-16T20:10:49.988Z,4.27
2023-03-16T20:13:17.786Z,3.20
2023-03-16T20:15:45.669Z,2.80
2023-03-16T20:18:14.597Z,2.30
2023-03-16T20:20:42.707Z,2.30
2023-03-16T20:23:18.927Z,2.80
2023-03-16T20:25:46.641Z,2.57
2023-03-16T20:28:22.377Z,2.50
2023-03-16T20:30:49.889Z,2.10
2023-03-16T20:33:18.563Z,2.30
2023-03-16T20:35:46.870Z,2.27
2023-03-16T20:38:14.761Z,2.23
2023-03-16T20:40:42.484Z,2.60
2023-03-16T20:43:29.249Z,2.40
2023-03-16T20:45:57.937Z,2.17
2023-03-16T20:48:25.505Z,2.57
2023-03-16T20:50:53.458Z,2.30
2023-03-16T20:53:20.719Z,2.30
2023-03-16T20:55:48.852Z,2.43
2023-03-16T20:58:26.763Z,2.43
2023-03-16T21:00:57.478Z,2.47
2023-03-16T21:03:27.514Z,2.50
2023-03-16T21:05:57.803Z,2.40
2023-03-16T21:08:26.733Z,2.30
2023-03-16T21:10:55.020Z,2.73
2023-03-16T21:13:28.609Z,2.33
2023-03-16T21:15:56.458Z,2.10
2023-03-16T21:18:23.934Z,2.50
2023-03-16T21:20:51.635Z,2.27
2023-03-16T21:23:20.854Z,2.30
2023-03-16T21:25:50.310Z,2.47
2023-03-16T21:28:17.813Z,2.43
2023-03-16T21:30:47.479Z,2.23
2023-03-16T21:33:20.292Z,2.50
2023-03-16T21:35:47.601Z,2.57
2023-03-16T21:38:16.628Z,2.60
2023-03-16T21:40:44.323Z,2.60
2023-03-16T21:43:12.141Z,2.50
2023-03-16T21:45:40.029Z,2.60
2023-03-16T21:48:08.709Z,3.10
2023-03-16T21:50:36.806Z,2.77
2023-03-16T21:53:04.392Z,2.93
2023-03-16T21:55:32.187Z,2.70
2023-03-16T21:57:59.892Z,2.83
2023-03-16T22:00:29.331Z,2.87
2023-03-16T22:02:57.874Z,2.77
2023-03-16T22:05:31.644Z,3.00
2023-03-16T22:07:59.895Z,2.90
2023-03-16T22:10:28.563Z,3.30
2023-03-16T22:12:56.571Z,2.93
2023-03-16T22:15:27.712Z,3.20
2023-03-16T22:17:55.889Z,3.13
2023-03-16T22:20:27.336Z,3.13
2023-03-16T22:22:55.818Z,2.93
2023-03-16T22:25:24.325Z,2.87
2023-03-16T22:27:52.227Z,3.27
2023-03-16T22:30:27.418Z,3.17
2023-03-16T22:32:57.289Z,3.27
2023-03-16T22:35:27.762Z,3.23
2023-03-16T22:37:55.813Z,3.40
2023-03-16T22:40:26.004Z,3.47
2023-03-16T22:42:53.070Z,3.07
2023-03-16T22:45:25.067Z,3.13
2023-03-16T22:47:52.720Z,3.20
2023-03-16T22:50:20.573Z,3.07
2023-03-16T22:52:50.503Z,3.20
2023-03-16T22:55:20.318Z,3.63
2023-03-16T22:57:47.872Z,3.20
2023-03-16T23:00:21.155Z,3.40
2023-03-16T23:02:49.367Z,2.93
2023-03-16T23:05:24.329Z,3.20
2023-03-16T23:07:52.037Z,3.13
2023-03-16T23:10:20.293Z,3.10
2023-03-16T23:12:47.771Z,3.20
2023-03-16T23:15:25.254Z,3.40
2023-03-16T23:17:52.992Z,3.20
2023-03-16T23:20:22.508Z,3.27
2023-03-16T23:22:50.149Z,3.10
2023-03-16T23:25:17.320Z,3.10
2023-03-16T23:27:44.471Z,3.40
2023-03-16T23:30:32.368Z,3.43
2023-03-16T23:32:59.798Z,3.47
2023-03-16T23:35:31.238Z,3.10
2023-03-16T23:37:58.409Z,3.23
2023-03-16T23:40:27.532Z,3.23
2023-03-16T23:42:56.293Z,3.43
2023-03-16T23:45:23.399Z,3.60
2023-03-16T23:47:51.999Z,3.10
2023-03-16T23:50:21.510Z,3.50
2023-03-16T23:52:48.579Z,3.60
2023-03-16T23:55:16.134Z,3.20
2023-03-16T23:57:43.218Z,3.57
